Newton, Massachusetts
Current Conditions -  °F | °C
As of 3:56 PM on Friday 19 Dec 2014 (Local Time) from KBED Reporting Station
Overcast Overcast  
Wind Chill: -4°   Ceiling: 3300
Heat Index:   Visibility: 10mi
Dew Point: -6°   Wind: 9mph
Humidity: 61%   Direction: 340°NNW
Pressure: 29.99"   Gusts: NA
Location:  42.34°N, 71.21°W
Report Text: KBED 192056Z AUTO 34008KT 10SM OVC033 01/M06 A2999 RMK AO2 SLP170 T00061061 53016 TSNO
Loading
Personal Weather Stations






























Interactive Weather Map New forecast layout! Learn more

10-Day Weather Forecast

Advertisements
Track Severe Weather on mobile